Time;durP1;ratioP1;P1;durP2;ratioP2;P2;SDS_P1;SDS_P2;PMS_P1;PMS_P2;Temp;Humidity;BMP_temperature;BMP_pressure;BME280_temperature;BME280_humidity;BME280_pressure;Samples;Min_cycle;Max_cycle;Signal;HPM_P1;HPM_P2
2023/12/21 00:01:04;;;;;;;16.27;1.80;;;;;;;-145.18;100.00;46677.97;5034205;28;20026;-82
2023/12/21 00:03:29;;;;;;;12.03;1.87;;;;;;;-145.18;100.00;46689.69;5039718;28;20055;-82
2023/12/21 00:05:55;;;;;;;18.50;3.23;;;;;;;-145.18;100.00;46683.84;5041478;28;20021;-85
2023/12/21 00:08:20;;;;;;;8.17;2.40;;;;;;;-145.18;100.00;46672.13;5042827;28;20486;-85
2023/12/21 00:10:45;;;;;;;16.43;1.90;;;;;;;-145.18;100.00;46672.13;5032268;28;20572;-84
2023/12/21 00:13:11;;;;;;;15.93;2.13;;;;;;;-145.18;100.00;46662.34;5044959;28;20029;-84
2023/12/21 00:15:36;;;;;;;14.90;1.80;;;;;;;-145.18;100.00;46676.03;5048036;28;20048;-84
2023/12/21 00:18:02;;;;;;;14.03;2.90;;;;;;;-145.18;100.00;46666.25;5049234;28;20049;-84
2023/12/21 00:20:27;;;;;;;16.63;2.30;;;;;;;-145.18;100.00;46668.22;5039770;28;20477;-84
2023/12/21 00:22:52;;;;;;;20.07;3.10;;;;;;;-145.18;100.00;46670.16;5057452;28;20057;-84
2023/12/21 00:25:18;;;;;;;15.83;3.00;;;;;;;-145.18;100.00;46664.31;5049385;28;20063;-84
2023/12/21 00:27:43;;;;;;;12.30;2.43;;;;;;;-145.18;100.00;46658.44;5040547;28;20464;-83
2023/12/21 00:30:09;;;;;;;19.63;2.87;;;;;;;-145.18;100.00;46656.50;5050640;28;20367;-84
2023/12/21 00:32:34;;;;;;;18.93;3.50;;;;;;;-145.18;100.00;46658.44;5036789;28;20030;-84
2023/12/21 00:35:00;;;;;;;16.07;2.83;;;;;;;-145.18;100.00;46662.34;5043897;28;20382;-84
2023/12/21 00:37:25;;;;;;;21.37;2.07;;;;;;;-145.18;100.00;46660.41;5046873;28;20036;-84
2023/12/21 00:39:51;;;;;;;19.17;3.03;;;;;;;-145.18;100.00;46656.50;5051916;28;20028;-85
2023/12/21 00:42:17;;;;;;;14.53;3.13;;;;;;;-145.18;100.00;46660.41;5051747;28;20053;-85
2023/12/21 00:44:42;;;;;;;12.70;2.00;;;;;;;-145.18;100.00;46662.34;5050828;28;20033;-85
2023/12/21 00:47:08;;;;;;;19.50;2.60;;;;;;;-145.18;100.00;46658.44;5037959;28;20045;-85
2023/12/21 00:49:34;;;;;;;11.67;2.10;;;;;;;-145.18;100.00;46656.50;5052798;28;20055;-85
2023/12/21 00:51:59;;;;;;;11.80;2.00;;;;;;;-145.18;100.00;46666.25;5050948;28;20075;-85
2023/12/21 00:54:25;;;;;;;17.97;2.83;;;;;;;-145.18;100.00;46664.31;5045515;28;20383;-83
2023/12/21 00:56:50;;;;;;;22.53;3.63;;;;;;;-145.18;100.00;46664.31;5045637;28;20091;-85
2023/12/21 00:59:15;;;;;;;17.20;2.33;;;;;;;-145.18;100.00;46662.34;5049260;28;20385;-84
2023/12/21 01:01:41;;;;;;;14.97;2.33;;;;;;;-145.18;100.00;46670.16;5050162;28;20072;-84
2023/12/21 01:04:06;;;;;;;16.93;2.70;;;;;;;-145.18;100.00;46666.25;5048446;28;20083;-84
2023/12/21 01:06:36;;;;;;;14.40;2.43;;;;;;;-145.18;100.00;46674.06;5050629;28;20519;-84
2023/12/21 01:09:03;;;;;;;19.73;2.97;;;;;;;-145.18;100.00;46668.22;5050144;28;20025;-85
2023/12/21 01:11:31;;;;;;;15.00;2.43;;;;;;;-145.18;100.00;46674.06;5050620;28;20116;-85
2023/12/21 01:13:56;;;;;;;16.40;2.63;;;;;;;-145.18;100.00;46670.16;5049773;28;20033;-85
2023/12/21 01:16:21;;;;;;;12.93;2.10;;;;;;;-145.18;100.00;46674.06;5051955;28;20036;-89
2023/12/21 01:18:47;;;;;;;24.30;2.23;;;;;;;-145.18;100.00;46674.06;5038615;28;20025;-89
2023/12/21 01:21:12;;;;;;;12.93;1.90;;;;;;;-145.18;100.00;46670.16;5051842;28;20104;-90
2023/12/21 01:23:38;;;;;;;14.40;2.53;;;;;;;-145.18;100.00;46670.16;5051889;28;20028;-89
2023/12/21 01:26:03;;;;;;;15.13;2.00;;;;;;;-145.18;100.00;46677.97;5051177;28;20033;-89
2023/12/21 01:28:29;;;;;;;16.80;1.97;;;;;;;-145.18;100.00;46681.88;5051689;28;20017;-89
2023/12/21 01:30:54;;;;;;;16.07;2.77;;;;;;;-145.18;100.00;46677.97;5051461;28;20485;-90
2023/12/21 01:33:20;;;;;;;15.77;2.67;;;;;;;-145.18;100.00;46677.97;5051473;28;20029;-90
2023/12/21 01:35:46;;;;;;;14.27;1.83;;;;;;;-145.18;100.00;46672.13;5051513;28;20031;-87
2023/12/21 01:38:11;;;;;;;18.60;2.20;;;;;;;-145.18;100.00;46672.13;5052520;28;20029;-90
2023/12/21 01:40:36;;;;;;;15.83;2.60;;;;;;;-145.18;100.00;46676.03;5051536;28;20319;-89
2023/12/21 01:43:02;;;;;;;16.17;2.50;;;;;;;-145.18;100.00;46677.97;5051393;28;20465;-90
2023/12/21 01:45:27;;;;;;;17.70;2.40;;;;;;;-145.18;100.00;46679.94;5040725;28;20036;-89
2023/12/21 01:47:55;;;;;;;19.17;2.23;;;;;;;-145.18;100.00;46676.03;5034585;28;20032;-90
2023/12/21 01:50:20;;;;;;;15.53;2.60;;;;;;;-145.18;100.00;46674.06;5031727;28;20068;-89
2023/12/21 01:52:46;;;;;;;14.07;2.43;;;;;;;-145.18;100.00;46674.06;5049787;28;20041;-89
2023/12/21 01:55:14;;;;;;;18.53;3.60;;;;;;;-145.18;100.00;46685.78;5040786;28;20509;-89
2023/12/21 01:57:40;;;;;;;13.47;2.23;;;;;;;-145.18;100.00;46672.13;5053437;28;20102;-89
2023/12/21 02:00:06;;;;;;;23.17;2.60;;;;;;;-145.18;100.00;46672.13;5051626;28;20032;-89
2023/12/21 02:02:32;;;;;;;13.80;2.50;;;;;;;-145.18;100.00;46672.13;5051540;28;20044;-89
2023/12/21 02:04:57;;;;;;;19.30;3.10;;;;;;;-145.18;100.00;46676.03;5049131;28;20408;-82
2023/12/21 02:07:23;;;;;;;16.87;2.17;;;;;;;-145.18;100.00;46670.16;5047243;28;20548;-81
2023/12/21 02:09:48;;;;;;;19.30;2.97;;;;;;;-145.18;100.00;46679.94;5048866;28;20385;-83
2023/12/21 02:12:14;;;;;;;13.43;2.50;;;;;;;-145.18;100.00;46668.22;5053415;28;20013;-84
2023/12/21 02:14:39;;;;;;;17.67;2.63;;;;;;;-145.18;100.00;46672.13;5052427;28;20558;-83
2023/12/21 02:17:15;;;;;;;20.83;3.47;;;;;;;-145.18;100.00;46674.06;5038481;28;20104;-84
2023/12/21 02:19:41;;;;;;;14.02;2.60;;;;;;;-145.18;100.00;46676.03;5055053;28;20035;-84
2023/12/21 02:22:09;;;;;;;16.83;3.00;;;;;;;-145.18;100.00;46683.84;5050504;28;20033;-84
2023/12/21 02:24:35;;;;;;;17.33;3.93;;;;;;;-145.18;100.00;46674.06;5053826;28;20462;-85
2023/12/21 02:27:00;;;;;;;16.00;2.50;;;;;;;-145.18;100.00;46676.03;5054622;28;20102;-84
2023/12/21 02:29:25;;;;;;;12.73;2.13;;;;;;;-145.18;100.00;46677.97;5055390;28;20025;-84
2023/12/21 02:31:51;;;;;;;21.40;2.90;;;;;;;-145.18;100.00;46683.84;5050632;28;20100;-84
2023/12/21 02:34:16;;;;;;;15.40;2.50;;;;;;;-145.18;100.00;46679.94;5048482;28;20024;-84
2023/12/21 02:36:44;;;;;;;18.87;2.37;;;;;;;-145.18;100.00;46683.84;5054266;28;20029;-84
2023/12/21 02:39:10;;;;;;;12.30;3.33;;;;;;;-145.18;100.00;46677.97;5049191;28;20017;-83
2023/12/21 02:41:35;;;;;;;11.50;2.83;;;;;;;-145.18;100.00;46683.84;5054898;28;20377;-84
2023/12/21 02:44:01;;;;;;;10.70;2.00;;;;;;;-145.18;100.00;46679.94;5054294;28;20022;-84
2023/12/21 02:46:29;;;;;;;25.33;2.60;;;;;;;-145.18;100.00;46699.47;5039533;28;20489;-84
2023/12/21 02:48:54;;;;;;;24.10;2.80;;;;;;;-145.18;100.00;46685.78;5053045;28;20389;-84
2023/12/21 02:51:20;;;;;;;17.20;2.77;;;;;;;-145.18;100.00;46699.47;5054592;28;20036;-84
2023/12/21 02:53:45;;;;;;;15.07;2.73;;;;;;;-145.18;100.00;46679.94;5051569;28;20025;-84
2023/12/21 02:56:11;;;;;;;19.40;3.60;;;;;;;-145.18;100.00;46691.66;5058343;28;20040;-85
2023/12/21 02:58:36;;;;;;;12.90;2.73;;;;;;;-145.18;100.00;46687.75;5040894;28;20351;-84
2023/12/21 03:01:02;;;;;;;18.87;2.90;;;;;;;-145.18;100.00;46679.94;5034248;28;20060;-84
2023/12/21 03:03:28;;;;;;;10.10;3.00;;;;;;;-145.18;100.00;46685.78;5064412;28;20052;-84
2023/12/21 03:05:53;;;;;;;18.67;3.47;;;;;;;-145.18;100.00;46685.78;5049847;28;20032;-84
2023/12/21 03:08:19;;;;;;;11.97;2.17;;;;;;;-145.18;100.00;46699.47;5053411;28;20028;-84
2023/12/21 03:10:44;;;;;;;16.10;2.87;;;;;;;-145.18;100.00;46687.75;5053393;28;20040;-84
2023/12/21 03:13:12;;;;;;;13.87;2.50;;;;;;;-145.18;100.00;46691.66;5068975;28;20052;-85
2023/12/21 03:15:38;;;;;;;21.67;2.77;;;;;;;-145.18;100.00;46691.66;5054122;28;20045;-88
2023/12/21 03:18:03;;;;;;;18.23;2.13;;;;;;;-145.18;100.00;46695.56;5057479;28;20036;-89
2023/12/21 03:20:29;;;;;;;20.70;2.43;;;;;;;-145.18;100.00;46679.94;5054135;28;20114;-89
2023/12/21 03:22:54;;;;;;;15.07;2.57;;;;;;;-145.18;100.00;46677.97;5053231;28;20385;-89
2023/12/21 03:25:20;;;;;;;19.43;2.93;;;;;;;-145.18;100.00;46695.56;5054458;28;20092;-88
2023/12/21 03:27:47;;;;;;;10.10;2.60;;;;;;;-145.18;100.00;46674.06;5054410;28;20036;-89
2023/12/21 03:30:12;;;;;;;14.33;2.40;;;;;;;-145.18;100.00;46697.50;5058105;28;20040;-89
2023/12/21 03:32:38;;;;;;;12.27;3.13;;;;;;;-145.18;100.00;46681.88;5041077;28;20025;-89
2023/12/21 03:35:05;;;;;;;17.87;2.37;;;;;;;-145.18;100.00;46676.03;5054667;28;20060;-89
2023/12/21 03:37:31;;;;;;;16.43;2.30;;;;;;;-145.18;100.00;46687.75;5034549;28;20037;-89
2023/12/21 03:39:57;;;;;;;14.40;2.43;;;;;;;-145.18;100.00;46683.84;5070551;28;20083;-90
2023/12/21 03:42:23;;;;;;;20.23;3.03;;;;;;;-145.18;100.00;46687.75;5054318;28;20033;-89
2023/12/21 03:44:48;;;;;;;18.70;3.70;;;;;;;-145.18;100.00;46681.88;5054211;28;20426;-89
2023/12/21 03:47:13;;;;;;;19.70;3.00;;;;;;;-145.18;100.00;46679.94;5054580;28;20056;-89
2023/12/21 03:49:40;;;;;;;30.93;3.43;;;;;;;-145.18;100.00;46679.94;5050553;28;20036;-89
2023/12/21 03:52:06;;;;;;;25.73;3.57;;;;;;;-145.18;100.00;46681.88;5047660;28;20036;-88
2023/12/21 03:54:31;;;;;;;18.40;3.30;;;;;;;-145.18;100.00;46683.84;5052439;28;20039;-89
2023/12/21 03:57:00;;;;;;;18.20;2.77;;;;;;;-145.18;100.00;46677.97;5044119;28;20037;-89
2023/12/21 03:59:25;;;;;;;17.27;2.57;;;;;;;-145.18;100.00;46683.84;5053994;28;20032;-89
2023/12/21 04:01:54;;;;;;;15.97;3.13;;;;;;;-145.18;100.00;46679.94;5052982;28;20057;-89
2023/12/21 04:04:19;;;;;;;18.30;2.90;;;;;;;-145.18;100.00;46679.94;5051652;28;20416;-89
2023/12/21 04:06:45;;;;;;;21.90;4.53;;;;;;;-145.18;100.00;46674.06;5043256;28;20028;-90
2023/12/21 04:09:10;;;;;;;26.60;3.87;;;;;;;-145.18;100.00;46676.03;5038557;28;20053;-89
2023/12/21 04:11:36;;;;;;;15.77;3.73;;;;;;;-145.18;100.00;46676.03;5049601;28;20108;-89
2023/12/21 04:14:04;;;;;;;17.73;2.80;;;;;;;-145.18;100.00;46676.03;5045618;28;20074;-89
2023/12/21 04:16:29;;;;;;;25.03;3.53;;;;;;;-145.18;100.00;46689.69;5052981;28;20388;-90
2023/12/21 04:18:55;;;;;;;25.13;3.77;;;;;;;-145.18;100.00;46687.75;5040366;28;20026;-90
2023/12/21 04:21:20;;;;;;;18.90;2.63;;;;;;;-145.18;100.00;46683.84;5050655;28;20033;-89
2023/12/21 04:23:46;;;;;;;25.77;3.10;;;;;;;-145.18;100.00;46677.97;5052000;28;20044;-90
2023/12/21 04:26:22;;;;;;;17.90;3.30;;;;;;;-145.18;100.00;46674.06;5068021;28;20033;-82
2023/12/21 04:28:49;;;;;;;18.83;2.58;;;;;;;-145.18;100.00;46685.78;5048433;28;20104;-82
2023/12/21 04:31:21;;;;;;;23.10;3.30;;;;;;;-145.18;100.00;46677.97;5052259;28;20629;-83
2023/12/21 04:33:52;;;;;;;19.47;3.03;;;;;;;-145.18;100.00;46685.78;5051098;28;20031;-82
2023/12/21 04:36:19;;;;;;;22.27;2.90;;;;;;;-145.18;100.00;46683.84;5051805;28;20044;-82
2023/12/21 04:38:44;;;;;;;19.77;3.17;;;;;;;-145.18;100.00;46679.94;5052130;28;20025;-82
2023/12/21 04:41:10;;;;;;;25.27;3.70;;;;;;;-145.18;100.00;46677.97;5047805;28;20100;-82
2023/12/21 04:43:36;;;;;;;22.30;2.67;;;;;;;-145.18;100.00;46677.97;5050728;28;20032;-82
2023/12/21 04:46:01;;;;;;;17.77;2.50;;;;;;;-145.18;100.00;46689.69;5049580;28;20033;-83
2023/12/21 04:48:29;;;;;;;14.83;2.90;;;;;;;-145.18;100.00;46679.94;5040783;28;20104;-83
2023/12/21 04:50:54;;;;;;;28.60;4.20;;;;;;;-145.18;100.00;46685.78;5034100;28;20025;-83
2023/12/21 04:53:20;;;;;;;16.67;3.97;;;;;;;-145.18;100.00;46677.97;5050516;28;20036;-82
2023/12/21 04:55:45;;;;;;;16.13;3.07;;;;;;;-145.18;100.00;46685.78;5052276;28;20041;-82
2023/12/21 04:58:10;;;;;;;19.50;2.93;;;;;;;-145.18;100.00;46679.94;5050708;28;20055;-82
2023/12/21 05:00:37;;;;;;;17.67;3.07;;;;;;;-145.18;100.00;46677.97;5048765;28;20027;-82
2023/12/21 05:03:02;;;;;;;19.47;3.03;;;;;;;-145.18;100.00;46683.84;5048423;28;20408;-82
2023/12/21 05:05:28;;;;;;;19.57;4.10;;;;;;;-145.18;100.00;46685.78;5048398;28;20033;-82
2023/12/21 05:07:53;;;;;;;27.63;3.97;;;;;;;-145.18;100.00;46679.94;5033554;28;20026;-82
2023/12/21 05:10:19;;;;;;;11.17;2.90;;;;;;;-145.18;100.00;46672.13;5040482;28;20036;-82
2023/12/21 05:12:44;;;;;;;21.03;3.67;;;;;;;-145.18;100.00;46677.97;5048914;28;20036;-82
2023/12/21 05:15:10;;;;;;;18.47;2.97;;;;;;;-145.18;100.00;46670.16;5045820;28;20064;-82
2023/12/21 05:17:35;;;;;;;21.43;4.17;;;;;;;-145.18;100.00;46679.94;5065048;28;20081;-82
2023/12/21 05:20:03;;;;;;;21.03;3.93;;;;;;;-145.18;100.00;46677.97;5045950;28;20474;-82
2023/12/21 05:22:29;;;;;;;14.27;2.97;;;;;;;-145.18;100.00;46676.03;5023677;28;20449;-82
2023/12/21 05:24:54;;;;;;;27.33;3.87;;;;;;;-145.18;100.00;46676.03;5049714;28;20139;-83
2023/12/21 05:27:20;;;;;;;10.70;2.50;;;;;;;-145.18;100.00;46672.13;5051498;28;20474;-82
2023/12/21 05:29:45;;;;;;;18.30;3.10;;;;;;;-145.18;100.00;46672.13;5051471;28;20104;-82
2023/12/21 05:32:10;;;;;;;13.37;2.10;;;;;;;-145.18;100.00;46677.97;5048664;28;20021;-80
2023/12/21 05:34:36;;;;;;;14.07;2.70;;;;;;;-145.18;100.00;46672.13;5040559;28;20478;-82
2023/12/21 05:37:01;;;;;;;13.70;2.53;;;;;;;-145.18;100.00;46672.13;5052053;28;20104;-82
2023/12/21 05:39:27;;;;;;;12.60;3.07;;;;;;;-145.18;100.00;46668.22;5051696;28;20056;-82
2023/12/21 05:41:53;;;;;;;22.60;2.50;;;;;;;-145.18;100.00;46670.16;5050528;28;20033;-82
2023/12/21 05:44:19;;;;;;;11.17;2.13;;;;;;;-145.18;100.00;46685.78;5049606;28;20028;-82
2023/12/21 05:46:44;;;;;;;17.67;2.67;;;;;;;-145.18;100.00;46672.13;5049867;28;20032;-82
2023/12/21 05:49:10;;;;;;;18.47;2.67;;;;;;;-145.18;100.00;46666.25;5048412;28;20086;-81
2023/12/21 05:51:35;;;;;;;14.10;3.23;;;;;;;-145.18;100.00;46664.31;5055534;28;20375;-82
2023/12/21 05:54:01;;;;;;;19.40;4.03;;;;;;;-145.18;100.00;46664.31;5047076;28;20401;-82
2023/12/21 05:56:27;;;;;;;20.77;2.77;;;;;;;-145.18;100.00;46664.31;5046581;28;20363;-81
2023/12/21 05:58:52;;;;;;;20.63;3.40;;;;;;;-145.18;100.00;46668.22;5051184;28;20051;-80
2023/12/21 06:01:18;;;;;;;16.60;3.30;;;;;;;-145.18;100.00;46656.50;5055518;28;20099;-80
2023/12/21 06:03:43;;;;;;;22.83;4.37;;;;;;;-145.18;100.00;46664.31;5041900;28;20083;-81
2023/12/21 06:06:09;;;;;;;16.47;3.50;;;;;;;-145.18;100.00;46664.31;5049837;28;20052;-81
2023/12/21 06:08:34;;;;;;;17.33;2.87;;;;;;;-145.18;100.00;46656.50;5048395;28;20378;-81
2023/12/21 06:11:00;;;;;;;23.57;2.87;;;;;;;-145.18;100.00;46658.44;5039349;28;20405;-81
2023/12/21 06:13:25;;;;;;;20.87;2.70;;;;;;;-145.18;100.00;46658.44;5057081;28;20524;-80
2023/12/21 06:15:53;;;;;;;13.80;2.47;;;;;;;-145.18;100.00;46654.53;5048342;28;20025;-80
2023/12/21 06:18:18;;;;;;;17.90;2.30;;;;;;;-145.18;100.00;46652.59;5048179;28;20100;-81
2023/12/21 06:20:44;;;;;;;21.33;3.93;;;;;;;-145.18;100.00;46654.53;5047372;28;20166;-80
2023/12/21 06:23:10;;;;;;;9.97;1.97;;;;;;;-145.18;100.00;46654.53;5048416;28;20045;-80
2023/12/21 06:25:38;;;;;;;14.53;2.57;;;;;;;-145.18;100.00;46654.53;5045775;28;20083;-80
2023/12/21 06:28:04;;;;;;;15.93;2.53;;;;;;;-145.18;100.00;46658.44;5050804;28;20064;-80
2023/12/21 06:30:29;;;;;;;20.00;2.63;;;;;;;-145.18;100.00;46664.31;5046084;28;20061;-80
2023/12/21 06:32:55;;;;;;;24.63;3.73;;;;;;;-145.18;100.00;46658.44;5040894;28;20091;-80
2023/12/21 06:35:22;;;;;;;17.37;2.87;;;;;;;-145.18;100.00;46662.34;5049906;28;20445;-80
2023/12/21 06:37:50;;;;;;;14.07;2.40;;;;;;;-145.18;100.00;46656.50;5036234;28;20037;-89
2023/12/21 06:40:16;;;;;;;15.97;2.40;;;;;;;-145.18;100.00;46654.53;5036503;28;20522;-81
2023/12/21 06:42:41;;;;;;;14.13;2.80;;;;;;;-145.18;100.00;46650.63;5043985;28;20108;-80
2023/12/21 06:45:11;;;;;;;12.07;1.90;;;;;;;-145.18;100.00;46656.50;5045788;28;20053;-91
2023/12/21 06:47:40;;;;;;;21.27;2.67;;;;;;;-145.18;100.00;46654.53;5040237;28;20071;-83
2023/12/21 06:50:06;;;;;;;18.27;1.87;;;;;;;-145.18;100.00;46662.34;5051312;28;20101;-82
2023/12/21 06:52:31;;;;;;;14.80;2.17;;;;;;;-145.18;100.00;46654.53;5046600;28;20052;-82
2023/12/21 06:54:57;;;;;;;14.53;2.07;;;;;;;-145.18;100.00;46660.41;5044402;28;20508;-83
2023/12/21 06:57:23;;;;;;;14.70;2.57;;;;;;;-145.18;100.00;46668.22;5040988;28;20025;-82
2023/12/21 06:59:49;;;;;;;23.63;4.63;;;;;;;-145.18;100.00;46664.31;5061906;28;20029;-83
2023/12/21 07:02:14;;;;;;;24.47;2.53;;;;;;;-145.18;100.00;46668.22;5048934;28;20045;-85
2023/12/21 07:04:40;;;;;;;22.83;2.23;;;;;;;-145.18;100.00;46672.13;5047053;28;20045;-82
2023/12/21 07:07:06;;;;;;;19.40;2.87;;;;;;;-145.18;100.00;46666.25;5054076;28;20121;-84
2023/12/21 07:09:31;;;;;;;15.17;3.30;;;;;;;-145.18;100.00;46674.06;5043136;28;20076;-85
2023/12/21 07:11:57;;;;;;;18.17;2.33;;;;;;;-145.18;100.00;46674.06;5041014;28;20033;-84
2023/12/21 07:14:22;;;;;;;21.73;2.90;;;;;;;-145.18;100.00;46672.13;5048352;28;20382;-82
2023/12/21 07:16:48;;;;;;;26.00;3.00;;;;;;;-145.18;100.00;46668.22;5052486;28;20082;-84
2023/12/21 07:19:13;;;;;;;15.47;2.97;;;;;;;-145.18;100.00;46679.94;5051350;28;20068;-83
2023/12/21 07:21:39;;;;;;;13.47;2.40;;;;;;;-145.18;100.00;46679.94;5043366;28;20042;-82
2023/12/21 07:24:05;;;;;;;14.27;2.00;;;;;;;-145.18;100.00;46689.69;5044949;28;20044;-89
2023/12/21 07:26:30;;;;;;;18.77;2.27;;;;;;;-145.18;100.00;46674.06;5053419;28;20032;-89
2023/12/21 07:28:55;;;;;;;15.03;2.47;;;;;;;-145.18;100.00;46677.97;5053560;28;20116;-89
2023/12/21 07:31:21;;;;;;;16.80;1.97;;;;;;;-145.18;100.00;46668.22;5054381;28;20021;-88
2023/12/21 07:33:47;;;;;;;17.73;1.77;;;;;;;-145.18;100.00;46677.97;5046555;28;20397;-89
2023/12/21 07:36:17;;;;;;;14.57;2.67;;;;;;;-145.18;100.00;46668.22;5053583;28;20028;-90
2023/12/21 07:38:42;;;;;;;14.87;2.00;;;;;;;-145.18;100.00;46662.34;5053278;28;20060;-88
2023/12/21 07:41:11;;;;;;;23.03;3.23;;;;;;;-145.18;100.00;46662.34;5053704;28;20503;-89
2023/12/21 07:43:39;;;;;;;16.73;2.43;;;;;;;-145.18;100.00;46662.34;5050013;28;20029;-88
2023/12/21 07:46:04;;;;;;;12.13;2.93;;;;;;;-145.18;100.00;46662.34;5049237;28;20508;-88
2023/12/21 07:48:30;;;;;;;12.60;2.73;;;;;;;-145.18;100.00;46658.44;5052803;28;20021;-88
2023/12/21 07:50:55;;;;;;;17.53;2.80;;;;;;;-145.18;100.00;46656.50;5050021;28;20021;-89
2023/12/21 07:53:21;;;;;;;13.03;2.27;;;;;;;-145.18;100.00;46658.44;5052278;28;20084;-87
2023/12/21 07:55:46;;;;;;;15.37;3.67;;;;;;;-145.18;100.00;46656.50;5053593;28;20029;-83
2023/12/21 07:58:12;;;;;;;11.67;1.67;;;;;;;-145.18;100.00;46656.50;5050111;28;20020;-83
2023/12/21 08:00:37;;;;;;;23.53;2.47;;;;;;;-145.18;100.00;46658.44;5043972;28;20064;-77
2023/12/21 08:03:03;;;;;;;17.43;2.47;;;;;;;-145.18;100.00;46652.59;5050271;28;20123;-78
2023/12/21 08:05:28;;;;;;;13.17;2.23;;;;;;;-145.18;100.00;46656.50;5033408;28;20045;-78
2023/12/21 08:07:53;;;;;;;9.90;2.00;;;;;;;-145.18;100.00;46656.50;5050060;28;20048;-77
2023/12/21 08:10:19;;;;;;;8.57;1.90;;;;;;;-145.18;100.00;46660.41;5045061;28;20030;-78
2023/12/21 08:12:46;;;;;;;16.60;3.17;;;;;;;-145.18;100.00;46650.63;5047989;28;20044;-78
2023/12/21 08:15:12;;;;;;;14.33;2.47;;;;;;;-145.18;100.00;46648.69;5039861;28;20064;-79
2023/12/21 08:17:39;;;;;;;11.90;2.43;;;;;;;-145.18;100.00;46658.44;5036854;28;20061;-80
2023/12/21 08:20:05;;;;;;;10.73;2.80;;;;;;;-145.18;100.00;46654.53;5048145;28;20482;-76
2023/12/21 08:22:31;;;;;;;14.07;2.90;;;;;;;-145.18;100.00;46650.63;5052218;28;20117;-77
2023/12/21 08:24:57;;;;;;;22.63;2.90;;;;;;;-145.18;100.00;46650.63;5047884;28;20420;-79
2023/12/21 08:27:24;;;;;;;9.73;1.87;;;;;;;-145.18;100.00;46650.63;5050149;28;20094;-78
2023/12/21 08:29:50;;;;;;;37.70;2.70;;;;;;;-145.18;100.00;46650.63;5048318;28;20040;-79
2023/12/21 08:32:17;;;;;;;16.20;2.17;;;;;;;-145.18;100.00;46654.53;5049834;28;20048;-80
2023/12/21 08:34:42;;;;;;;19.40;2.07;;;;;;;-145.18;100.00;46652.59;5045854;28;20045;-77
2023/12/21 08:37:09;;;;;;;13.90;1.53;;;;;;;-145.18;100.00;46652.59;5040254;28;20904;-77
2023/12/21 08:39:35;;;;;;;15.87;2.17;;;;;;;-145.18;100.00;46652.59;5052279;28;20363;-79
2023/12/21 08:42:01;;;;;;;19.10;2.53;;;;;;;-145.18;100.00;46658.44;5050387;28;20044;-79
2023/12/21 08:44:26;;;;;;;28.97;2.67;;;;;;;-145.18;100.00;46658.44;5049786;28;20029;-77
2023/12/21 08:46:53;;;;;;;13.57;2.10;;;;;;;-145.18;100.00;46654.53;5051303;28;20032;-79
2023/12/21 08:49:18;;;;;;;15.20;1.77;;;;;;;-145.18;100.00;46660.41;5047070;28;20109;-78
2023/12/21 08:51:44;;;;;;;14.77;2.40;;;;;;;-145.18;100.00;46652.59;5049398;28;20116;-76
2023/12/21 08:54:09;;;;;;;14.93;1.57;;;;;;;-145.18;100.00;46664.31;5048999;28;20057;-79
2023/12/21 08:56:34;;;;;;;15.80;2.33;;;;;;;-145.18;100.00;46660.41;5050532;28;20041;-78
2023/12/21 08:59:01;;;;;;;20.03;2.40;;;;;;;-145.18;100.00;46664.31;5050778;28;20813;-78
2023/12/21 09:01:29;;;;;;;14.73;3.50;;;;;;;-145.18;100.00;46662.34;5050987;28;20033;-79
2023/12/21 09:03:54;;;;;;;8.07;1.90;;;;;;;-145.18;100.00;46662.34;5048140;28;20033;-80
2023/12/21 09:06:20;;;;;;;8.10;1.07;;;;;;;-145.18;100.00;46660.41;5033594;28;20038;-79
2023/12/21 09:08:46;;;;;;;12.90;1.87;;;;;;;-145.18;100.00;46660.41;5048220;28;20478;-78
2023/12/21 09:11:12;;;;;;;11.33;1.50;;;;;;;-145.18;100.00;46666.25;5040104;28;20060;-79
2023/12/21 09:13:37;;;;;;;19.93;1.60;;;;;;;-145.18;100.00;46670.16;5038184;28;20038;-77
2023/12/21 09:16:03;;;;;;;8.30;2.20;;;;;;;-145.18;100.00;46666.25;5032428;28;20175;-78
2023/12/21 09:18:28;;;;;;;12.30;1.70;;;;;;;-145.18;100.00;46666.25;5048538;28;20052;-78
2023/12/21 09:20:53;;;;;;;10.10;1.43;;;;;;;-145.18;100.00;46668.22;5050894;28;20087;-78
2023/12/21 09:23:19;;;;;;;11.80;1.77;;;;;;;-145.18;100.00;46672.13;5051827;28;20033;-79
2023/12/21 09:25:44;;;;;;;12.87;1.60;;;;;;;-145.18;100.00;46670.16;5056102;28;20036;-79
2023/12/21 09:28:10;;;;;;;15.20;1.53;;;;;;;-145.18;100.00;46670.16;5042380;28;20116;-79
2023/12/21 09:30:36;;;;;;;8.77;1.30;;;;;;;-145.18;100.00;46668.22;5037874;28;20042;-80
2023/12/21 09:33:02;;;;;;;8.17;2.03;;;;;;;-145.18;100.00;46679.94;5042324;28;20378;-80
2023/12/21 09:35:28;;;;;;;13.37;1.30;;;;;;;-145.18;100.00;46674.06;5043591;28;20049;-79
2023/12/21 09:37:53;;;;;;;6.40;1.63;;;;;;;-145.18;100.00;46679.94;5042009;28;20083;-80
2023/12/21 09:40:19;;;;;;;19.97;2.03;;;;;;;-145.18;100.00;46677.97;5055784;28;20396;-80
2023/12/21 09:42:51;;;;;;;13.60;1.30;;;;;;;-145.18;100.00;46676.03;5054364;28;20128;-81
2023/12/21 09:45:18;;;;;;;10.17;1.60;;;;;;;-145.18;100.00;46685.78;5049741;28;20098;-81
2023/12/21 09:47:45;;;;;;;10.27;1.50;;;;;;;-145.18;100.00;46683.84;5053905;28;20039;-80
2023/12/21 09:50:12;;;;;;;6.97;1.30;;;;;;;-145.18;100.00;46695.56;5041925;28;20029;-80
2023/12/21 09:52:39;;;;;;;10.80;1.17;;;;;;;-145.18;100.00;46677.97;5054592;28;20115;-81
2023/12/21 09:55:07;;;;;;;7.77;1.70;;;;;;;-145.18;100.00;46681.88;5055637;28;20040;-80
2023/12/21 09:57:39;;;;;;;8.73;1.30;;;;;;;-145.18;100.00;46683.84;5054712;28;20029;-81
2023/12/21 10:00:05;;;;;;;10.00;1.63;;;;;;;-145.18;100.00;46677.97;5040198;28;20037;-80
2023/12/21 10:02:31;;;;;;;12.53;1.37;;;;;;;-145.18;100.00;46687.75;5066178;28;20041;-80
2023/12/21 10:04:57;;;;;;;9.40;1.13;;;;;;;-145.18;100.00;46681.88;5055080;28;20033;-80
2023/12/21 10:07:24;;;;;;;9.07;1.10;;;;;;;-145.18;100.00;46693.59;5054363;28;20040;-81
2023/12/21 10:09:49;;;;;;;9.23;2.10;;;;;;;-145.18;100.00;46672.13;5054310;28;20036;-80
2023/12/21 10:12:15;;;;;;;5.77;1.03;;;;;;;-145.18;100.00;46687.75;5054937;28;20116;-78
2023/12/21 10:14:40;;;;;;;9.20;0.93;;;;;;;-145.18;100.00;46681.88;5041482;28;20128;-79
2023/12/21 10:17:09;;;;;;;5.60;1.40;;;;;;;-145.18;100.00;46681.88;5039906;28;20464;-84
2023/12/21 10:19:37;;;;;;;4.97;1.07;;;;;;;-145.18;100.00;46674.06;5040594;28;20033;-83
2023/12/21 10:22:03;;;;;;;4.83;1.10;;;;;;;-145.18;100.00;46670.16;5040729;28;20424;-84
2023/12/21 10:24:31;;;;;;;3.77;0.80;;;;;;;-145.18;100.00;46670.16;5041393;28;20022;-84
2023/12/21 10:26:56;;;;;;;4.27;1.00;;;;;;;-145.18;100.00;46677.97;5042935;28;20083;-82
2023/12/21 10:29:21;;;;;;;6.67;1.17;;;;;;;-145.18;100.00;46672.13;5044264;28;20056;-80
2023/12/21 10:31:48;;;;;;;6.27;0.80;;;;;;;-145.18;100.00;46664.31;5043277;28;20068;-79
2023/12/21 10:34:15;;;;;;;7.83;0.90;;;;;;;-145.18;100.00;46672.13;5042703;28;20037;-80
2023/12/21 10:36:44;;;;;;;11.90;1.30;;;;;;;-145.18;100.00;46668.22;5042646;28;20107;-80
2023/12/21 10:39:11;;;;;;;3.50;0.90;;;;;;;-145.18;100.00;46660.41;5040182;28;20474;-80
2023/12/21 10:41:39;;;;;;;7.33;1.10;;;;;;;-145.18;100.00;46666.25;5042995;28;20485;-80
2023/12/21 10:44:04;;;;;;;5.87;1.03;;;;;;;-145.18;100.00;46660.41;5043129;28;20473;-80
2023/12/21 10:46:30;;;;;;;5.00;1.00;;;;;;;-145.18;100.00;46656.50;5043985;28;20047;-80
2023/12/21 10:48:59;;;;;;;5.87;1.00;;;;;;;-145.18;100.00;46656.50;5043084;28;20024;-80
2023/12/21 10:51:28;;;;;;;5.77;1.30;;;;;;;-145.18;100.00;46658.44;5043444;28;20549;-80
2023/12/21 10:53:57;;;;;;;6.00;0.90;;;;;;;-145.18;100.00;46660.41;5041082;28;20482;-80
2023/12/21 10:56:25;;;;;;;3.67;0.80;;;;;;;-145.18;100.00;46672.13;5042268;28;20887;-80